Time;durP1;ratioP1;P1;durP2;ratioP2;P2;SDS_P1;SDS_P2;PMS_P1;PMS_P2;Temp;Humidity;BMP_temperature;BMP_pressure;BME280_temperature;BME280_humidity;BME280_pressure;Samples;Min_cycle;Max_cycle;Signal;HPM_P1;HPM_P2
2021/01/20 00:01:07;;;;;;;3.85;1.67;;;-3276.50;96.30;;;;;;4959386;28;20058;-84
2021/01/20 00:03:35;;;;;;;4.20;1.60;;;-3276.40;96.00;;;;;;4978710;28;20238;-85
2021/01/20 00:06:05;;;;;;;4.18;1.70;;;-3276.40;96.20;;;;;;4981230;28;20122;-86
2021/01/20 00:08:32;;;;;;;4.47;1.10;;;-3276.40;96.20;;;;;;4978135;28;20065;-86
2021/01/20 00:10:59;;;;;;;2.10;1.00;;;-3276.40;96.10;;;;;;4945401;28;20122;-87
2021/01/20 00:13:27;;;;;;;5.88;2.15;;;-3276.40;96.20;;;;;;4947134;28;20097;-82
2021/01/20 00:15:56;;;;;;;4.90;1.80;;;-3276.30;96.10;;;;;;4963072;28;20074;-83
2021/01/20 00:18:23;;;;;;;6.30;2.10;;;-3276.30;96.20;;;;;;4973619;28;20055;-83
2021/01/20 00:20:50;;;;;;;3.70;2.00;;;-3276.30;96.40;;;;;;4977844;28;20061;-84
2021/01/20 00:23:17;;;;;;;4.25;2.05;;;-3276.30;96.30;;;;;;4978186;28;20054;-81
2021/01/20 00:25:44;;;;;;;4.35;1.90;;;-3276.20;96.40;;;;;;4973499;28;20057;-84
2021/01/20 00:28:11;;;;;;;5.07;1.92;;;-3276.20;96.60;;;;;;4974508;28;20070;-82
2021/01/20 00:30:38;;;;;;;4.20;2.00;;;-3276.20;96.60;;;;;;4976407;28;20058;-83
2021/01/20 00:33:07;;;;;;;6.00;2.42;;;-3276.30;96.80;;;;;;4942732;28;21482;-85
2021/01/20 00:35:34;;;;;;;4.97;1.55;;;-3276.20;96.60;;;;;;4975945;28;20055;-85
2021/01/20 00:38:01;;;;;;;4.03;1.38;;;-3276.20;96.60;;;;;;4976295;28;20552;-84
2021/01/20 00:40:27;;;;;;;5.05;1.95;;;-3276.10;96.70;;;;;;4957510;28;20059;-84
2021/01/20 00:42:55;;;;;;;5.57;1.70;;;-3276.20;96.70;;;;;;4956623;28;20058;-84
2021/01/20 00:45:25;;;;;;;7.22;3.00;;;-3276.10;96.80;;;;;;4972202;28;20062;-83
2021/01/20 00:47:54;;;;;;;3.55;2.05;;;-3276.10;96.70;;;;;;4972493;28;20381;-85
2021/01/20 00:50:23;;;;;;;4.18;2.10;;;-3276.20;96.80;;;;;;4958424;28;20074;-83
2021/01/20 00:52:52;;;;;;;4.15;1.83;;;-3276.20;96.50;;;;;;4979824;28;20057;-84
2021/01/20 00:55:20;;;;;;;6.07;1.92;;;-3276.10;96.50;;;;;;4980182;28;20046;-82
2021/01/20 00:57:52;;;;;;;6.07;1.90;;;-3276.10;96.50;;;;;;4963260;28;20065;-82
2021/01/20 01:00:21;;;;;;;3.85;1.88;;;-3276.10;96.40;;;;;;4980967;28;20297;-85
2021/01/20 01:02:50;;;;;;;3.92;1.67;;;-3276.10;96.60;;;;;;4949828;28;20042;-83
2021/01/20 01:05:21;;;;;;;6.70;1.67;;;-3276.00;96.50;;;;;;4965919;28;20373;-84
2021/01/20 01:07:55;;;;;;;3.63;1.70;;;-3276.00;96.70;;;;;;4948928;28;20074;-86
2021/01/20 01:10:23;;;;;;;3.88;2.10;;;-3276.10;96.60;;;;;;4949533;28;20059;-84
2021/01/20 01:13:09;;;;;;;5.35;1.98;;;-3276.20;96.40;;;;;;4982385;28;20060;-85
2021/01/20 01:15:43;;;;;;;6.03;2.67;;;-3276.30;96.00;;;;;;4980477;28;20109;-84
2021/01/20 01:18:12;;;;;;;2.47;1.27;;;-3276.30;95.90;;;;;;4964500;28;20055;-85
2021/01/20 01:20:42;;;;;;;4.60;2.07;;;-3276.40;95.90;;;;;;4979836;28;20050;-85
2021/01/20 01:23:12;;;;;;;;;;;-3276.30;96.00;;;;;;4964515;28;20077;-85
2021/01/20 01:25:40;;;;;;;2.50;1.27;;;-3276.30;96.10;;;;;;4947447;28;20220;-83
2021/01/20 01:28:13;;;;;;;3.50;1.60;;;-3276.20;96.20;;;;;;4964758;28;20078;-83
2021/01/20 01:30:54;;;;;;;1.55;0.77;;;-3276.20;96.40;;;;;;4949833;28;20109;-84
2021/01/20 01:33:21;;;;;;;6.10;1.17;;;-3276.10;96.50;;;;;;4965103;28;20059;-85
2021/01/20 01:35:49;;;;;;;3.60;1.33;;;-3276.10;96.70;;;;;;4980888;28;20461;-84
2021/01/20 01:38:16;;;;;;;2.42;1.60;;;-3276.10;96.80;;;;;;4964307;28;20110;-83
2021/01/20 01:40:49;;;;;;;4.72;2.13;;;-3276.00;96.80;;;;;;4979374;28;20065;-85
2021/01/20 01:43:24;;;;;;;5.43;2.30;;;-3276.00;96.80;;;;;;4949156;28;20059;-85
2021/01/20 01:46:11;;;;;;;4.53;1.70;;;-3276.00;96.90;;;;;;4982183;28;20050;-85
2021/01/20 01:48:44;;;;;;;2.90;1.60;;;-3276.00;96.80;;;;;;4964802;28;20362;-85
2021/01/20 01:51:13;;;;;;;4.50;1.60;;;-3275.90;96.90;;;;;;4963664;28;20293;-83
2021/01/20 01:53:59;;;;;;;4.60;1.65;;;-3275.90;96.90;;;;;;4964237;28;20054;-85
2021/01/20 01:56:30;;;;;;;2.90;1.95;;;-3275.90;97.00;;;;;;4978683;28;20145;-83
2021/01/20 01:59:04;;;;;;;6.80;1.73;;;-3275.80;96.90;;;;;;4951910;28;20065;-84
2021/01/20 02:01:31;;;;;;;2.47;1.27;;;-3275.80;96.90;;;;;;4968531;28;20409;-84
2021/01/20 02:04:02;;;;;;;2.63;1.42;;;-3275.90;97.10;;;;;;4968490;28;20107;-85
2021/01/20 02:06:38;;;;;;;4.28;1.63;;;-3275.90;97.10;;;;;;4968518;28;21183;-84
2021/01/20 02:09:23;;;;;;;6.50;1.77;;;-3275.90;96.90;;;;;;4984643;28;20051;-83
2021/01/20 02:12:20;;;;;;;2.30;1.10;;;-3275.80;96.90;;;;;;4951904;28;20250;-84
2021/01/20 02:14:55;;;;;;;3.70;1.45;;;-3275.80;96.80;;;;;;4966021;28;20049;-86
2021/01/20 02:17:34;;;;;;;4.38;1.65;;;-3275.90;97.00;;;;;;4968974;28;20066;-84
2021/01/20 02:20:11;;;;;;;4.25;1.85;;;-3275.90;96.70;;;;;;4984053;28;20058;-84
2021/01/20 02:22:41;;;;;;;1.88;1.48;;;-3275.80;96.60;;;;;;4983007;28;20219;-84
2021/01/20 02:25:45;;;;;;;4.88;2.47;;;-3275.80;96.70;;;;;;4984592;28;20237;-85
2021/01/20 02:28:31;;;;;;;4.53;1.40;;;-3275.80;96.80;;;;;;4966441;28;20348;-85
2021/01/20 02:31:14;;;;;;;3.13;1.48;;;-3275.80;96.70;;;;;;4966157;28;20070;-86
2021/01/20 02:33:46;;;;;;;4.30;1.50;;;-3275.70;96.60;;;;;;4984148;28;20357;-82
2021/01/20 02:36:19;;;;;;;3.83;1.20;;;-3275.80;96.80;;;;;;4967756;28;20401;-86
2021/01/20 02:39:00;;;;;;;12.97;2.20;;;-3275.80;96.90;;;;;;4973401;28;20046;-85
2021/01/20 02:41:29;;;;;;;3.33;1.10;;;-3275.70;96.60;;;;;;4972668;28;20050;-85
2021/01/20 02:44:12;;;;;;;5.32;2.03;;;-3275.80;96.70;;;;;;4969713;28;20085;-84
2021/01/20 02:47:12;;;;;;;2.13;1.30;;;-3275.80;96.80;;;;;;4963504;28;20059;-84
2021/01/20 02:50:01;;;;;;;3.67;1.50;;;-3275.80;96.90;;;;;;4965612;28;20062;-84
2021/01/20 02:52:38;;;;;;;5.03;2.03;;;-3275.70;97.00;;;;;;4953028;28;20051;-84
2021/01/20 02:55:26;;;;;;;2.28;1.40;;;-3275.80;96.90;;;;;;4968451;28;20050;-87
2021/01/20 02:58:15;;;;;;;1.95;1.48;;;-3275.80;97.00;;;;;;4985037;28;20126;-86
2021/01/20 03:01:04;;;;;;;3.83;2.05;;;-3275.80;96.90;;;;;;4972277;28;20354;-84
2021/01/20 03:03:33;;;;;;;2.97;0.98;;;-3275.90;96.90;;;;;;4986008;28;20077;-86
2021/01/20 03:06:02;;;;;;;4.30;1.50;;;-3275.90;96.90;;;;;;4967967;28;20452;-87
2021/01/20 03:08:31;;;;;;;5.38;1.95;;;-3275.90;96.60;;;;;;4985399;28;20047;-84
2021/01/20 03:11:02;;;;;;;7.82;1.77;;;-3276.00;96.70;;;;;;4984622;28;20058;-84
2021/01/20 03:13:30;;;;;;;2.47;1.23;;;-3276.00;96.70;;;;;;4986530;28;20052;-84
2021/01/20 03:16:00;;;;;;;4.88;2.30;;;-3276.10;96.60;;;;;;4975842;28;20057;-85
2021/01/20 03:18:32;;;;;;;4.63;1.52;;;-3276.10;96.30;;;;;;4987350;28;20042;-87
2021/01/20 03:21:01;;;;;;;2.83;1.33;;;-3276.10;96.10;;;;;;4989662;28;20085;-84
2021/01/20 03:23:30;;;;;;;3.53;0.95;;;-3276.10;96.10;;;;;;4974375;28;20304;-83
2021/01/20 03:25:57;;;;;;;2.95;0.80;;;-3276.20;96.20;;;;;;4990119;28;20062;-82
2021/01/20 03:28:24;;;;;;;5.78;1.70;;;-3276.10;96.10;;;;;;4989280;28;20089;-85
2021/01/20 03:30:52;;;;;;;2.70;1.35;;;-3276.00;96.00;;;;;;4989225;28;20062;-85
2021/01/20 03:33:18;;;;;;;4.65;1.20;;;-3276.00;96.00;;;;;;4986645;28;20049;-83
2021/01/20 03:35:48;;;;;;;2.75;1.13;;;-3276.00;96.20;;;;;;4970199;28;20058;-79
2021/01/20 03:38:17;;;;;;;2.78;1.17;;;-3276.00;96.00;;;;;;4990469;28;20088;-84
2021/01/20 03:40:44;;;;;;;3.05;1.45;;;-3276.00;96.00;;;;;;5187816;23;20280;-83
2021/01/20 03:43:11;;;;;;;4.03;1.85;;;-3276.10;95.80;;;;;;4976831;28;20331;-82
2021/01/20 03:45:38;;;;;;;6.13;1.30;;;-3276.10;95.60;;;;;;4985722;28;20042;-82
2021/01/20 03:48:05;;;;;;;7.25;1.92;;;-3276.10;95.50;;;;;;5004605;28;20042;-82
2021/01/20 03:50:32;;;;;;;4.28;1.80;;;-3276.00;95.80;;;;;;5003512;28;20043;-81
2021/01/20 03:53:00;;;;;;;2.30;1.25;;;-3276.00;95.80;;;;;;4985876;28;20042;-83
2021/01/20 03:55:29;;;;;;;4.05;2.10;;;-3276.00;95.70;;;;;;5004809;28;20042;-81
2021/01/20 03:57:56;;;;;;;5.72;2.08;;;-3276.10;95.60;;;;;;5259276;23;20089;-85
2021/01/20 04:00:30;;;;;;;2.58;1.27;;;-3276.10;95.50;;;;;;4989997;28;20054;-85
2021/01/20 04:02:57;;;;;;;4.60;2.13;;;-3276.00;95.40;;;;;;4985288;28;20073;-85
2021/01/20 04:05:34;;;;;;;3.58;1.48;;;-3275.90;95.40;;;;;;4987145;28;20078;-84
2021/01/20 04:08:04;;;;;;;2.42;1.55;;;-3275.70;95.70;;;;;;4985604;28;20428;-85
2021/01/20 04:10:32;;;;;;;3.38;1.63;;;-3275.70;96.20;;;;;;5248349;23;20048;-83
2021/01/20 04:12:59;;;;;;;3.30;1.10;;;-3275.70;96.30;;;;;;5005196;28;20057;-82
2021/01/20 04:15:27;;;;;;;1.85;1.30;;;-3275.70;96.30;;;;;;5022714;28;20287;-82
2021/01/20 04:17:53;;;;;;;2.53;0.95;;;-3275.60;96.30;;;;;;5026258;28;20075;-81
2021/01/20 04:20:21;;;;;;;3.17;1.83;;;-3275.60;96.40;;;;;;5024435;28;20053;-83
2021/01/20 04:22:48;;;;;;;4.80;1.50;;;-3275.60;96.50;;;;;;5024051;28;20062;-83
2021/01/20 04:25:16;;;;;;;3.40;1.17;;;-3275.60;96.50;;;;;;5022757;28;20290;-83
2021/01/20 04:27:43;;;;;;;4.95;1.42;;;-3275.60;96.50;;;;;;5006594;28;20061;-82
2021/01/20 04:30:11;;;;;;;2.63;1.08;;;-3275.60;96.60;;;;;;5018056;28;20081;-84
2021/01/20 04:32:38;;;;;;;2.97;1.10;;;-3275.70;96.40;;;;;;5015645;28;20049;-82
2021/01/20 04:35:07;;;;;;;3.20;1.50;;;-3275.80;96.10;;;;;;5002372;28;20076;-82
2021/01/20 04:37:34;;;;;;;5.75;2.85;;;-3275.80;95.80;;;;;;5023399;28;20061;-84
2021/01/20 04:40:01;;;;;;;3.00;1.30;;;-3275.70;95.50;;;;;;5019496;28;20221;-84
2021/01/20 04:42:32;;;;;;;3.30;1.63;;;-3275.60;95.50;;;;;;5018325;28;20046;-82
2021/01/20 04:44:59;;;;;;;3.88;1.35;;;-3275.60;95.80;;;;;;5013992;28;20048;-81
2021/01/20 04:47:27;;;;;;;3.78;2.45;;;-3275.60;96.10;;;;;;5016018;28;20062;-84
2021/01/20 04:49:55;;;;;;;4.97;2.03;;;-3275.60;96.00;;;;;;4994728;28;20117;-82
2021/01/20 04:52:25;;;;;;;3.67;1.48;;;-3275.60;95.90;;;;;;5014783;28;20062;-83
2021/01/20 04:54:53;;;;;;;1.33;0.80;;;-3275.60;95.90;;;;;;5015546;28;20058;-82
2021/01/20 04:57:21;;;;;;;2.90;1.58;;;-3275.60;95.80;;;;;;4999075;28;20045;-82
2021/01/20 04:59:50;;;;;;;4.25;1.80;;;-3275.70;95.90;;;;;;5015843;28;20415;-82
2021/01/20 05:02:18;;;;;;;4.95;1.52;;;-3275.60;95.80;;;;;;5016494;28;20045;-85
2021/01/20 05:04:45;;;;;;;4.80;1.20;;;-3275.70;96.00;;;;;;5010041;28;20151;-84
2021/01/20 05:07:11;;;;;;;3.28;1.33;;;-3275.60;96.10;;;;;;4998263;28;20328;-81
2021/01/20 05:09:38;;;;;;;4.07;1.77;;;-3275.60;96.20;;;;;;5016959;28;20072;-83
2021/01/20 05:12:06;;;;;;;4.97;1.55;;;-3275.60;96.30;;;;;;5000781;28;20058;-82
2021/01/20 05:14:33;;;;;;;4.05;1.42;;;-3275.60;96.40;;;;;;5003464;28;20054;-83
2021/01/20 05:17:10;;;;;;;3.80;1.80;;;-3275.50;96.40;;;;;;5016644;28;20046;-81
2021/01/20 05:19:38;;;;;;;5.05;1.42;;;-3275.50;96.60;;;;;;5013065;28;20058;-82
2021/01/20 05:22:08;;;;;;;6.68;1.42;;;-3275.60;96.40;;;;;;5017627;28;20049;-84
2021/01/20 05:24:35;;;;;;;4.25;1.63;;;-3275.60;96.50;;;;;;4997926;28;20053;-83
2021/01/20 05:27:04;;;;;;;2.28;1.25;;;-3275.60;96.40;;;;;;4999542;28;20056;-82
2021/01/20 05:29:31;;;;;;;1.58;0.80;;;-3275.60;96.40;;;;;;4996628;28;20061;-82
2021/01/20 05:31:57;;;;;;;1.98;1.25;;;-3275.60;96.30;;;;;;5000749;28;20115;-82
2021/01/20 05:34:32;;;;;;;3.72;1.98;;;-3275.60;96.10;;;;;;4983245;28;20407;-83
2021/01/20 05:37:08;;;;;;;3.65;1.73;;;-3275.60;96.10;;;;;;5016110;28;20293;-82
2021/01/20 05:39:35;;;;;;;3.20;1.05;;;-3275.60;95.90;;;;;;5013319;28;20736;-82
2021/01/20 05:42:05;;;;;;;3.38;1.83;;;-3275.60;96.20;;;;;;5015562;28;20053;-85
2021/01/20 05:44:32;;;;;;;3.00;1.50;;;-3275.60;96.10;;;;;;5015980;28;20054;-81
2021/01/20 05:47:06;;;;;;;7.07;1.50;;;-3275.60;96.10;;;;;;5016732;28;20053;-82
2021/01/20 05:49:34;;;;;;;6.03;2.13;;;-3275.60;95.90;;;;;;5013000;28;20088;-81
2021/01/20 05:52:13;;;;;;;7.13;2.00;;;-3275.60;96.00;;;;;;4978661;28;20081;-84
2021/01/20 05:54:42;;;;;;;3.78;1.70;;;-3275.60;96.00;;;;;;4994736;28;20081;-83
2021/01/20 05:57:11;;;;;;;4.07;1.55;;;-3275.60;96.00;;;;;;5013095;28;20280;-82
2021/01/20 05:59:38;;;;;;;8.95;2.40;;;-3275.60;96.20;;;;;;5011062;28;21411;-80
2021/01/20 06:02:04;;;;;;;4.07;2.13;;;-3275.60;96.20;;;;;;4980626;28;20467;-83
2021/01/20 06:04:35;;;;;;;4.30;1.75;;;-3275.60;95.80;;;;;;5014187;28;20057;-84
2021/01/20 06:07:05;;;;;;;5.00;2.53;;;-3275.60;96.00;;;;;;5016922;28;20073;-83
2021/01/20 06:09:34;;;;;;;5.55;2.05;;;-3275.70;96.20;;;;;;5012309;28;20407;-82
2021/01/20 06:12:03;;;;;;;9.77;2.10;;;-3275.70;96.00;;;;;;4996285;28;20173;-83
2021/01/20 06:14:30;;;;;;;4.10;1.85;;;-3275.70;95.90;;;;;;5012042;28;20093;-84
2021/01/20 06:17:04;;;;;;;5.32;2.25;;;-3275.70;96.10;;;;;;4995556;28;20053;-84
2021/01/20 06:19:32;;;;;;;3.50;2.10;;;-3275.80;96.00;;;;;;5014748;28;20068;-84
2021/01/20 06:22:02;;;;;;;5.35;3.42;;;-3275.90;96.00;;;;;;4996675;28;20256;-82
2021/01/20 06:24:37;;;;;;;8.13;2.35;;;-3276.00;95.60;;;;;;5012837;28;20056;-81
2021/01/20 06:27:12;;;;;;;7.50;1.90;;;-3276.00;95.60;;;;;;5013562;28;20417;-82
2021/01/20 06:29:45;;;;;;;5.80;1.95;;;-3276.10;95.40;;;;;;4982268;28;20112;-84
2021/01/20 06:32:17;;;;;;;7.15;2.10;;;-3276.10;95.10;;;;;;4980888;28;20049;-81
2021/01/20 06:34:50;;;;;;;6.50;1.67;;;-3276.00;95.00;;;;;;5013276;28;20081;-82
2021/01/20 06:37:38;;;;;;;5.57;1.80;;;-3276.00;95.20;;;;;;5011883;28;20338;-82
2021/01/20 06:40:48;;;;;;;6.80;2.72;;;-3276.10;95.20;;;;;;5010561;28;20069;-83
2021/01/20 06:43:48;;;;;;;4.00;2.30;;;-3276.00;95.10;;;;;;5014452;28;20308;-82
2021/01/20 06:46:26;;;;;;;6.17;2.87;;;-3276.00;95.20;;;;;;4998894;28;20127;-83
2021/01/20 06:49:09;;;;;;;13.07;1.80;;;-3276.00;95.30;;;;;;4986551;28;20053;-81
2021/01/20 06:51:37;;;;;;;3.90;1.65;;;-3276.10;95.40;;;;;;4999562;28;20076;-81
2021/01/20 06:54:13;;;;;;;5.47;1.90;;;-3276.10;95.40;;;;;;5017263;28;20058;-82
2021/01/20 06:56:48;;;;;;;10.90;1.90;;;-3276.20;95.30;;;;;;5015531;28;20053;-82
2021/01/20 06:59:23;;;;;;;5.97;2.17;;;-3276.30;95.30;;;;;;4996249;28;20411;-82
2021/01/20 07:02:10;;;;;;;4.25;1.67;;;-3276.50;95.20;;;;;;5016585;28;20351;-84
2021/01/20 07:04:55;;;;;;;5.65;2.05;;;-3276.50;94.60;;;;;;4997461;28;20054;-82
2021/01/20 07:07:52;;;;;;;9.52;2.40;;;-3276.60;94.80;;;;;;4999037;28;20053;-81
2021/01/20 07:10:22;;;;;;;6.43;2.83;;;-3276.60;94.30;;;;;;4999093;28;20129;-84
2021/01/20 07:13:30;;;;;;;5.18;1.45;;;-3276.60;94.40;;;;;;5000572;28;20069;-80
2021/01/20 07:16:00;;;;;;;4.78;2.47;;;-3276.60;94.40;;;;;;4974659;28;20185;-83
2021/01/20 07:18:40;;;;;;;3.78;2.50;;;-3276.70;94.30;;;;;;5010177;28;21023;-85
2021/01/20 07:21:07;;;;;;;;;;;0.00;94.60;;;;;;5013106;28;20111;-84
2021/01/20 07:23:34;;;;;;;9.80;2.45;;;0.00;94.70;;;;;;5000097;28;19925;-85
2021/01/20 07:26:08;;;;;;;4.53;2.15;;;0.20;93.90;;;;;;5015819;28;20060;-82
2021/01/20 07:28:36;;;;;;;6.15;2.65;;;0.20;93.70;;;;;;5018639;28;20053;-84
2021/01/20 07:31:10;;;;;;;9.32;3.53;;;0.20;93.50;;;;;;5000398;28;20057;-82
2021/01/20 07:33:38;;;;;;;6.75;2.67;;;0.30;93.80;;;;;;5018392;28;20149;-82
2021/01/20 07:36:13;;;;;;;11.73;3.60;;;0.40;93.40;;;;;;4995489;28;20088;-82
2021/01/20 07:38:40;;;;;;;6.43;2.15;;;0.40;92.90;;;;;;5016200;28;20049;-80
2021/01/20 07:41:16;;;;;;;5.82;2.13;;;0.40;93.20;;;;;;5016043;28;20065;-83
2021/01/20 07:43:43;;;;;;;7.00;2.58;;;0.40;93.40;;;;;;5013979;28;20058;-81
2021/01/20 07:46:21;;;;;;;7.30;2.97;;;0.40;93.10;;;;;;5014058;28;20365;-83
2021/01/20 07:48:49;;;;;;;3.95;1.60;;;0.40;93.20;;;;;;4999123;28;20065;-82
2021/01/20 07:51:20;;;;;;;6.18;3.08;;;0.40;93.40;;;;;;5019858;28;20209;-81
2021/01/20 07:54:01;;;;;;;13.70;3.38;;;0.50;93.10;;;;;;5015157;28;20062;-83
2021/01/20 07:56:31;;;;;;;11.77;4.38;;;0.60;93.40;;;;;;4993894;28;20061;-82
2021/01/20 07:59:15;;;;;;;10.45;4.32;;;0.60;93.50;;;;;;5012490;28;20062;-84
2021/01/20 08:01:42;;;;;;;6.88;3.22;;;0.70;93.10;;;;;;4997737;28;20045;-80
2021/01/20 08:04:20;;;;;;;12.77;4.90;;;0.80;93.20;;;;;;5014603;28;20061;-83
2021/01/20 08:06:47;;;;;;;12.02;4.65;;;0.80;92.90;;;;;;4980822;28;20161;-82
2021/01/20 08:09:14;;;;;;;9.15;4.07;;;1.00;93.00;;;;;;5010929;28;20050;-80
2021/01/20 08:11:43;;;;;;;9.52;4.82;;;1.10;92.70;;;;;;4996081;28;20240;-81
2021/01/20 08:14:11;;;;;;;14.15;4.75;;;1.10;92.90;;;;;;4996647;28;20069;-82
2021/01/20 08:16:38;;;;;;;7.88;3.78;;;1.20;92.50;;;;;;5014970;28;20038;-84
2021/01/20 08:19:06;;;;;;;9.90;3.65;;;1.20;92.20;;;;;;5015708;28;20058;-84
2021/01/20 08:21:35;;;;;;;10.48;4.75;;;1.20;92.10;;;;;;4994393;28;20061;-81
2021/01/20 08:24:10;;;;;;;10.52;4.22;;;1.30;92.00;;;;;;4997158;28;20374;-82
2021/01/20 08:26:38;;;;;;;7.47;3.60;;;1.40;92.10;;;;;;4995316;28;20088;-83
2021/01/20 08:29:09;;;;;;;13.48;5.53;;;1.50;91.40;;;;;;5013137;28;20099;-83
2021/01/20 08:31:39;;;;;;;9.55;4.80;;;1.60;91.50;;;;;;4996797;28;20260;-81
2021/01/20 08:34:20;;;;;;;8.30;5.10;;;1.60;91.70;;;;;;4996633;28;20133;-84
2021/01/20 08:36:55;;;;;;;8.40;3.97;;;1.80;91.90;;;;;;5012351;28;20313;-82
2021/01/20 08:39:32;;;;;;;19.02;5.38;;;1.70;91.10;;;;;;4995690;28;20103;-82
2021/01/20 08:42:22;;;;;;;17.38;5.20;;;1.70;91.10;;;;;;5014335;28;20070;-81
2021/01/20 08:45:11;;;;;;;8.63;4.82;;;1.80;91.30;;;;;;5014872;28;20339;-82
2021/01/20 08:47:47;;;;;;;7.78;4.05;;;1.90;91.30;;;;;;4999001;28;20070;-80
2021/01/20 08:50:18;;;;;;;8.95;3.38;;;1.80;90.60;;;;;;5012695;28;20248;-82
2021/01/20 08:52:47;;;;;;;7.38;4.00;;;1.80;90.60;;;;;;4985625;28;20046;-84
2021/01/20 08:55:25;;;;;;;8.68;3.28;;;1.90;90.60;;;;;;4996646;28;20058;-81
2021/01/20 08:58:20;;;;;;;10.35;3.65;;;2.10;90.50;;;;;;4995596;28;20081;-81
2021/01/20 09:00:59;;;;;;;6.65;3.65;;;2.10;90.90;;;;;;5011560;28;20328;-82
2021/01/20 09:03:29;;;;;;;10.85;4.40;;;2.20;90.60;;;;;;4993340;28;20153;-81
2021/01/20 09:05:57;;;;;;;14.95;6.60;;;2.40;91.00;;;;;;4994748;28;20054;-81
2021/01/20 09:08:26;;;;;;;10.02;3.67;;;2.40;90.10;;;;;;5011478;28;20060;-81
2021/01/20 09:10:54;;;;;;;6.20;3.63;;;2.40;90.30;;;;;;5009525;28;20054;-82
2021/01/20 09:13:21;;;;;;;11.77;4.63;;;2.60;88.90;;;;;;5011582;28;20057;-83
2021/01/20 09:15:50;;;;;;;13.63;5.72;;;2.70;88.20;;;;;;5013820;28;20042;-80
2021/01/20 09:18:19;;;;;;;10.07;4.93;;;2.90;87.00;;;;;;5010985;28;20062;-83
2021/01/20 09:20:46;;;;;;;9.32;4.32;;;3.20;86.10;;;;;;4993201;28;20061;-82
2021/01/20 09:23:13;;;;;;;10.20;4.05;;;3.40;85.40;;;;;;4995315;28;20135;-81
2021/01/20 09:25:40;;;;;;;8.20;5.15;;;3.60;83.60;;;;;;4996712;28;20045;-81
2021/01/20 09:28:08;;;;;;;12.07;5.55;;;3.90;83.50;;;;;;4991651;28;20049;-83
2021/01/20 09:30:35;;;;;;;7.68;4.25;;;4.20;82.40;;;;;;5016020;28;20066;-81
2021/01/20 09:33:04;;;;;;;7.90;2.75;;;4.40;80.80;;;;;;4995851;28;20080;-82
2021/01/20 09:35:34;;;;;;;5.78;2.65;;;4.60;79.70;;;;;;4994214;28;20047;-81
2021/01/20 09:38:10;;;;;;;6.22;2.10;;;4.70;78.90;;;;;;4975224;28;20133;-82
2021/01/20 09:40:38;;;;;;;6.03;2.78;;;4.80;78.20;;;;;;4992937;28;20057;-82
2021/01/20 09:43:05;;;;;;;7.75;2.47;;;4.90;78.30;;;;;;5011096;28;21202;-81
2021/01/20 09:45:32;;;;;;;5.63;1.98;;;4.90;78.00;;;;;;5009394;28;20675;-83
2021/01/20 09:48:00;;;;;;;6.32;2.38;;;5.00;77.70;;;;;;4993750;28;20367;-82
2021/01/20 09:50:33;;;;;;;6.70;2.90;;;5.20;76.10;;;;;;4994408;28;20232;-84
2021/01/20 09:53:00;;;;;;;7.40;2.95;;;5.30;75.90;;;;;;4994694;28;20157;-82
2021/01/20 09:55:29;;;;;;;5.97;3.28;;;5.30;75.30;;;;;;4994053;28;20050;-80
2021/01/20 09:57:56;;;;;;;5.03;2.58;;;5.40;74.80;;;;;;4995007;28;20057;-81
2021/01/20 10:00:24;;;;;;;4.10;1.85;;;5.60;75.30;;;;;;5012376;28;20412;-81
2021/01/20 10:02:53;;;;;;;2.67;1.40;;;5.60;74.20;;;;;;4995139;28;20054;-84
2021/01/20 10:05:20;;;;;;;5.25;2.65;;;5.70;74.00;;;;;;5018786;28;20050;-83
2021/01/20 10:07:48;;;;;;;2.00;1.30;;;5.90;73.30;;;;;;5019309;28;20102;-81
2021/01/20 10:10:16;;;;;;;4.15;1.50;;;6.10;72.50;;;;;;5022748;28;20065;-85
2021/01/20 10:12:43;;;;;;;4.95;1.73;;;6.20;72.20;;;;;;5007818;28;20050;-82
2021/01/20 10:15:11;;;;;;;3.70;1.30;;;6.50;70.90;;;;;;4990044;28;20049;-83
2021/01/20 10:17:38;;;;;;;3.53;1.77;;;6.70;69.40;;;;;;4990208;28;20147;-81
2021/01/20 10:20:07;;;;;;;2.85;1.45;;;6.90;69.20;;;;;;5031213;28;20054;-81
2021/01/20 10:22:35;;;;;;;2.17;1.02;;;7.10;67.70;;;;;;5026748;28;20295;-81
2021/01/20 10:25:08;;;;;;;3.30;0.98;;;7.30;67.10;;;;;;5026470;28;20065;-81
2021/01/20 10:27:35;;;;;;;3.03;1.40;;;7.50;68.00;;;;;;5008684;28;20375;-81
2021/01/20 10:30:06;;;;;;;4.38;1.58;;;7.70;66.50;;;;;;4994007;28;20357;-83
2021/01/20 10:32:35;;;;;;;3.40;1.60;;;7.80;65.80;;;;;;5028219;28;20060;-81
2021/01/20 10:35:03;;;;;;;2.72;0.82;;;7.90;64.20;;;;;;5012255;28;20046;-80
2021/01/20 10:37:36;;;;;;;1.50;0.60;;;8.00;64.60;;;;;;4995356;28;20065;-82
2021/01/20 10:40:05;;;;;;;3.35;0.90;;;8.00;63.00;;;;;;5011722;28;20103;-82
2021/01/20 10:42:33;;;;;;;2.40;0.85;;;8.10;63.10;;;;;;5012598;28;20449;-80
2021/01/20 10:45:00;;;;;;;2.08;0.98;;;8.20;62.80;;;;;;5021837;28;20050;-79
2021/01/20 10:47:33;;;;;;;1.58;0.85;;;8.20;62.40;;;;;;4999218;28;20107;-82
2021/01/20 10:50:00;;;;;;;;;;;8.30;62.00;;;;;;5017553;28;20064;-81
2021/01/20 10:52:30;;;;;;;3.22;0.57;;;8.40;59.90;;;;;;5007798;28;20196;-80
2021/01/20 10:55:16;;;;;;;2.42;0.90;;;8.70;60.20;;;;;;5007484;28;20042;-81
2021/01/20 10:57:48;;;;;;;3.00;0.77;;;9.10;58.40;;;;;;4990655;28;20547;-80
2021/01/20 11:00:16;;;;;;;3.22;1.30;;;9.70;57.40;;;;;;4992651;28;20056;-80
2021/01/20 11:02:43;;;;;;;4.40;1.40;;;10.70;53.20;;;;;;4991516;28;20056;-81
2021/01/20 11:05:12;;;;;;;4.00;1.27;;;11.30;50.90;;;;;;5025884;28;20048;-82
2021/01/20 11:07:40;;;;;;;3.17;1.27;;;12.00;47.50;;;;;;5023579;28;20062;-81
2021/01/20 11:10:12;;;;;;;2.45;0.75;;;12.10;47.80;;;;;;5026039;28;20291;-81
2021/01/20 11:15:23;;;;;;;3.40;1.00;;;12.60;45.50;;;;;;5004789;28;20053;-82
2021/01/20 11:17:50;;;;;;;1.75;0.73;;;13.20;44.40;;;;;;5024266;28;20410;-80
2021/01/20 11:20:18;;;;;;;3.97;0.85;;;13.20;44.00;;;;;;5007375;28;20133;-79
2021/01/20 11:22:46;;;;;;;8.45;2.10;;;13.10;44.20;;;;;;5005639;28;20054;-78
2021/01/20 11:25:14;;;;;;;10.38;2.03;;;13.00;44.60;;;;;;5004565;28;20049;-82
2021/01/20 11:27:41;;;;;;;5.55;1.70;;;13.20;44.30;;;;;;5021770;28;20046;-81
2021/01/20 11:30:09;;;;;;;1.73;0.60;;;13.00;44.10;;;;;;5021563;28;20276;-77
2021/01/20 11:32:35;;;;;;;5.30;1.45;;;12.90;44.50;;;;;;5020660;28;20064;-79
2021/01/20 11:35:04;;;;;;;4.97;1.30;;;12.70;44.60;;;;;;5019645;28;20050;-80
2021/01/20 11:37:31;;;;;;;1.75;0.57;;;12.90;45.10;;;;;;5023937;28;20344;-81
2021/01/20 11:40:01;;;;;;;2.67;0.75;;;12.90;44.60;;;;;;5006096;28;20068;-82
2021/01/20 11:42:30;;;;;;;2.72;0.80;;;12.60;45.20;;;;;;5021449;28;20060;-80
2021/01/20 11:44:57;;;;;;;3.53;0.93;;;12.90;45.60;;;;;;5020768;28;20068;-81
2021/01/20 11:47:24;;;;;;;3.22;1.27;;;13.00;45.80;;;;;;5022529;28;20364;-82
2021/01/20 11:49:51;;;;;;;3.50;0.82;;;13.50;44.30;;;;;;5020789;28;20084;-82
2021/01/20 11:52:18;;;;;;;4.50;1.02;;;13.60;42.80;;;;;;5022152;28;20428;-82
2021/01/20 11:54:45;;;;;;;2.50;0.70;;;14.30;43.30;;;;;;5005623;28;20066;-83
2021/01/20 11:57:12;;;;;;;2.25;0.90;;;14.50;41.80;;;;;;5023491;28;20038;-82
2021/01/20 11:59:40;;;;;;;2.13;0.60;;;14.30;41.80;;;;;;4989467;28;20149;-81
2021/01/20 12:02:07;;;;;;;2.05;1.08;;;13.70;43.20;;;;;;5007229;28;20358;-81
2021/01/20 12:04:34;;;;;;;3.30;1.10;;;12.90;44.20;;;;;;5006813;28;20281;-82
2021/01/20 12:07:02;;;;;;;2.80;0.82;;;13.30;44.90;;;;;;5005707;28;20117;-82
2021/01/20 12:09:28;;;;;;;2.30;0.90;;;13.10;45.30;;;;;;4987463;28;20054;-83
2021/01/20 12:11:55;;;;;;;2.50;0.88;;;13.60;43.60;;;;;;5022527;28;20058;-82
2021/01/20 12:14:22;;;;;;;1.63;0.70;;;13.60;43.20;;;;;;5022391;28;20080;-80
2021/01/20 12:16:50;;;;;;;3.38;0.80;;;13.70;42.80;;;;;;5020773;28;20123;-83
2021/01/20 12:19:17;;;;;;;3.50;1.33;;;13.80;42.30;;;;;;4986228;28;20125;-85
2021/01/20 12:21:44;;;;;;;2.95;0.60;;;14.20;42.10;;;;;;5022083;28;20069;-82
2021/01/20 12:24:14;;;;;;;3.53;0.90;;;13.60;42.70;;;;;;5021521;28;20060;-83
2021/01/20 12:26:43;;;;;;;1.38;0.60;;;13.50;43.60;;;;;;5019475;28;20072;-82
2021/01/20 12:29:10;;;;;;;4.00;0.80;;;13.40;42.80;;;;;;5003974;28;20054;-83
2021/01/20 12:31:37;;;;;;;4.18;0.90;;;13.40;43.90;;;;;;5004565;28;20154;-82
2021/01/20 12:34:13;;;;;;;1.75;0.80;;;14.10;42.50;;;;;;5002848;28;20054;-83
2021/01/20 12:36:40;;;;;;;4.30;0.90;;;14.00;42.50;;;;;;5021401;28;20321;-81
2021/01/20 12:39:07;;;;;;;2.13;0.70;;;14.50;41.00;;;;;;5015406;28;20061;-82
2021/01/20 12:41:34;;;;;;;2.38;0.50;;;14.10;42.40;;;;;;5002809;28;20054;-82
2021/01/20 12:44:07;;;;;;;2.45;0.77;;;13.40;43.50;;;;;;5018058;28;20046;-83
2021/01/20 12:47:08;;;;;;;1.88;0.57;;;13.20;44.80;;;;;;5019926;28;20057;-82
2021/01/20 12:49:45;;;;;;;1.15;0.68;;;12.80;45.40;;;;;;5003078;28;20053;-82
2021/01/20 12:52:12;;;;;;;4.10;1.10;;;12.70;45.80;;;;;;5017522;28;20404;-82
2021/01/20 12:54:40;;;;;;;1.88;0.60;;;12.50;46.20;;;;;;5016636;28;20085;-82
2021/01/20 12:57:10;;;;;;;2.08;0.60;;;12.70;45.50;;;;;;5017643;28;20050;-83